sensor_id;sensor_type;location;lat;lon;timestamp;P1;durP1;ratioP1;P2;durP2;ratioP2
67065;SDS011;53978;43.846;25.952;2023-02-15T00:01:07;12.52;;;6.25;;
67065;SDS011;53978;43.846;25.952;2023-02-15T00:03:33;11.98;;;6.45;;
67065;SDS011;53978;43.846;25.952;2023-02-15T00:05:59;12.13;;;6.80;;
67065;SDS011;53978;43.846;25.952;2023-02-15T00:08:24;17.02;;;7.72;;
67065;SDS011;53978;43.846;25.952;2023-02-15T00:10:50;15.55;;;7.57;;
67065;SDS011;53978;43.846;25.952;2023-02-15T00:13:15;13.02;;;6.65;;
67065;SDS011;53978;43.846;25.952;2023-02-15T00:15:40;10.25;;;6.18;;
67065;SDS011;53978;43.846;25.952;2023-02-15T00:18:06;13.48;;;7.18;;
67065;SDS011;53978;43.846;25.952;2023-02-15T00:20:31;9.85;;;5.70;;
67065;SDS011;53978;43.846;25.952;2023-02-15T00:22:57;12.50;;;6.47;;
67065;SDS011;53978;43.846;25.952;2023-02-15T00:25:23;11.48;;;6.75;;
67065;SDS011;53978;43.846;25.952;2023-02-15T00:27:48;11.60;;;5.95;;
67065;SDS011;53978;43.846;25.952;2023-02-15T00:30:14;12.48;;;5.93;;
67065;SDS011;53978;43.846;25.952;2023-02-15T00:32:39;13.82;;;6.47;;
67065;SDS011;53978;43.846;25.952;2023-02-15T00:35:05;10.70;;;5.82;;
67065;SDS011;53978;43.846;25.952;2023-02-15T00:37:31;10.95;;;5.47;;
67065;SDS011;53978;43.846;25.952;2023-02-15T00:39:57;13.23;;;6.13;;
67065;SDS011;53978;43.846;25.952;2023-02-15T00:42:22;10.98;;;6.20;;
67065;SDS011;53978;43.846;25.952;2023-02-15T00:44:48;13.95;;;6.72;;
67065;SDS011;53978;43.846;25.952;2023-02-15T00:47:13;9.02;;;5.40;;
67065;SDS011;53978;43.846;25.952;2023-02-15T00:49:39;11.52;;;5.95;;
67065;SDS011;53978;43.846;25.952;2023-02-15T00:52:04;9.25;;;5.97;;
67065;SDS011;53978;43.846;25.952;2023-02-15T00:54:29;9.32;;;5.63;;
67065;SDS011;53978;43.846;25.952;2023-02-15T00:56:55;9.77;;;5.20;;
67065;SDS011;53978;43.846;25.952;2023-02-15T00:59:20;10.60;;;5.20;;
67065;SDS011;53978;43.846;25.952;2023-02-15T01:01:45;10.18;;;6.18;;
67065;SDS011;53978;43.846;25.952;2023-02-15T01:04:11;11.85;;;5.95;;
67065;SDS011;53978;43.846;25.952;2023-02-15T01:06:36;11.45;;;6.03;;
67065;SDS011;53978;43.846;25.952;2023-02-15T01:09:04;8.43;;;5.00;;
67065;SDS011;53978;43.846;25.952;2023-02-15T01:11:30;11.73;;;6.22;;
67065;SDS011;53978;43.846;25.952;2023-02-15T01:13:56;10.98;;;5.68;;
67065;SDS011;53978;43.846;25.952;2023-02-15T01:16:23;11.02;;;6.07;;
67065;SDS011;53978;43.846;25.952;2023-02-15T01:18:50;10.77;;;4.82;;
67065;SDS011;53978;43.846;25.952;2023-02-15T01:21:17;11.55;;;6.22;;
67065;SDS011;53978;43.846;25.952;2023-02-15T01:23:43;11.88;;;6.55;;
67065;SDS011;53978;43.846;25.952;2023-02-15T01:26:09;11.30;;;6.75;;
67065;SDS011;53978;43.846;25.952;2023-02-15T01:28:35;11.30;;;5.97;;
67065;SDS011;53978;43.846;25.952;2023-02-15T01:31:04;12.52;;;6.45;;
67065;SDS011;53978;43.846;25.952;2023-02-15T01:33:31;10.35;;;6.15;;
67065;SDS011;53978;43.846;25.952;2023-02-15T01:35:57;14.05;;;6.50;;
67065;SDS011;53978;43.846;25.952;2023-02-15T01:38:23;13.68;;;7.35;;
67065;SDS011;53978;43.846;25.952;2023-02-15T01:40:51;18.52;;;8.68;;
67065;SDS011;53978;43.846;25.952;2023-02-15T01:55:20;11.57;;;6.47;;
67065;SDS011;53978;43.846;25.952;2023-02-15T01:57:47;20.35;;;8.05;;
67065;SDS011;53978;43.846;25.952;2023-02-15T02:00:13;12.65;;;7.10;;
67065;SDS011;53978;43.846;25.952;2023-02-15T02:02:40;13.30;;;7.47;;
67065;SDS011;53978;43.846;25.952;2023-02-15T02:05:07;14.10;;;7.60;;
67065;SDS011;53978;43.846;25.952;2023-02-15T02:07:34;14.60;;;7.72;;
67065;SDS011;53978;43.846;25.952;2023-02-15T02:10:04;14.45;;;7.88;;
67065;SDS011;53978;43.846;25.952;2023-02-15T02:12:30;13.93;;;7.47;;
67065;SDS011;53978;43.846;25.952;2023-02-15T02:14:56;19.65;;;8.15;;
67065;SDS011;53978;43.846;25.952;2023-02-15T02:27:50;15.55;;;7.78;;
67065;SDS011;53978;43.846;25.952;2023-02-15T02:35:44;25.70;;;8.52;;
67065;SDS011;53978;43.846;25.952;2023-02-15T02:41:12;17.48;;;8.20;;
67065;SDS011;53978;43.846;25.952;2023-02-15T02:46:15;13.27;;;7.70;;
67065;SDS011;53978;43.846;25.952;2023-02-15T02:48:45;15.18;;;6.97;;
67065;SDS011;53978;43.846;25.952;2023-02-15T02:51:11;13.30;;;7.95;;
67065;SDS011;53978;43.846;25.952;2023-02-15T02:53:36;12.18;;;6.80;;
67065;SDS011;53978;43.846;25.952;2023-02-15T02:56:06;11.60;;;6.63;;
67065;SDS011;53978;43.846;25.952;2023-02-15T02:58:42;11.70;;;6.90;;
67065;SDS011;53978;43.846;25.952;2023-02-15T03:03:42;17.02;;;6.90;;
67065;SDS011;53978;43.846;25.952;2023-02-15T03:06:14;13.35;;;7.20;;
67065;SDS011;53978;43.846;25.952;2023-02-15T03:08:44;13.80;;;7.07;;
67065;SDS011;53978;43.846;25.952;2023-02-15T03:11:12;11.48;;;6.45;;
67065;SDS011;53978;43.846;25.952;2023-02-15T03:13:38;11.50;;;6.45;;
67065;SDS011;53978;43.846;25.952;2023-02-15T03:16:03;13.43;;;6.68;;
67065;SDS011;53978;43.846;25.952;2023-02-15T03:21:19;13.73;;;5.95;;
67065;SDS011;53978;43.846;25.952;2023-02-15T03:23:50;17.73;;;8.82;;
67065;SDS011;53978;43.846;25.952;2023-02-15T03:26:18;15.27;;;8.07;;
67065;SDS011;53978;43.846;25.952;2023-02-15T03:28:45;12.40;;;7.60;;
67065;SDS011;53978;43.846;25.952;2023-02-15T03:31:13;15.15;;;8.45;;
67065;SDS011;53978;43.846;25.952;2023-02-15T03:33:40;13.48;;;8.25;;
67065;SDS011;53978;43.846;25.952;2023-02-15T03:36:11;15.40;;;8.45;;
67065;SDS011;53978;43.846;25.952;2023-02-15T03:41:24;14.35;;;6.85;;
67065;SDS011;53978;43.846;25.952;2023-02-15T03:43:53;14.10;;;7.40;;
67065;SDS011;53978;43.846;25.952;2023-02-15T03:46:32;15.30;;;8.02;;
67065;SDS011;53978;43.846;25.952;2023-02-15T03:49:00;14.38;;;7.82;;
67065;SDS011;53978;43.846;25.952;2023-02-15T03:51:33;12.57;;;7.13;;
67065;SDS011;53978;43.846;25.952;2023-02-15T03:56:35;14.23;;;7.63;;
67065;SDS011;53978;43.846;25.952;2023-02-15T03:59:02;14.23;;;7.45;;
67065;SDS011;53978;43.846;25.952;2023-02-15T04:01:54;11.57;;;6.60;;
67065;SDS011;53978;43.846;25.952;2023-02-15T04:06:50;19.20;;;7.50;;
67065;SDS011;53978;43.846;25.952;2023-02-15T04:09:19;15.18;;;7.40;;
67065;SDS011;53978;43.846;25.952;2023-02-15T04:12:03;14.85;;;7.72;;
67065;SDS011;53978;43.846;25.952;2023-02-15T04:14:28;14.07;;;6.97;;
67065;SDS011;53978;43.846;25.952;2023-02-15T04:17:12;18.08;;;8.48;;
67065;SDS011;53978;43.846;25.952;2023-02-15T04:19:38;12.18;;;7.03;;
67065;SDS011;53978;43.846;25.952;2023-02-15T04:22:22;15.02;;;7.15;;
67065;SDS011;53978;43.846;25.952;2023-02-15T04:25:06;12.30;;;6.20;;
67065;SDS011;53978;43.846;25.952;2023-02-15T04:27:34;11.80;;;7.43;;
67065;SDS011;53978;43.846;25.952;2023-02-15T04:30:00;17.45;;;7.95;;
67065;SDS011;53978;43.846;25.952;2023-02-15T04:32:26;16.35;;;8.05;;
67065;SDS011;53978;43.846;25.952;2023-02-15T04:34:52;16.33;;;8.20;;
67065;SDS011;53978;43.846;25.952;2023-02-15T04:37:18;16.13;;;7.78;;
67065;SDS011;53978;43.846;25.952;2023-02-15T04:39:43;14.48;;;7.97;;
67065;SDS011;53978;43.846;25.952;2023-02-15T04:42:08;14.20;;;8.05;;
67065;SDS011;53978;43.846;25.952;2023-02-15T04:44:34;16.02;;;8.63;;
67065;SDS011;53978;43.846;25.952;2023-02-15T04:46:59;14.95;;;8.55;;
67065;SDS011;53978;43.846;25.952;2023-02-15T04:49:24;14.88;;;8.55;;
67065;SDS011;53978;43.846;25.952;2023-02-15T04:51:50;21.05;;;8.43;;
67065;SDS011;53978;43.846;25.952;2023-02-15T04:54:15;24.05;;;9.88;;
67065;SDS011;53978;43.846;25.952;2023-02-15T04:56:41;15.68;;;8.95;;
67065;SDS011;53978;43.846;25.952;2023-02-15T04:59:09;18.00;;;8.35;;
67065;SDS011;53978;43.846;25.952;2023-02-15T05:01:35;16.05;;;8.73;;
67065;SDS011;53978;43.846;25.952;2023-02-15T05:04:00;16.33;;;7.88;;
67065;SDS011;53978;43.846;25.952;2023-02-15T05:06:26;14.30;;;8.07;;
67065;SDS011;53978;43.846;25.952;2023-02-15T05:08:52;19.17;;;8.60;;
67065;SDS011;53978;43.846;25.952;2023-02-15T05:11:17;14.57;;;8.32;;
67065;SDS011;53978;43.846;25.952;2023-02-15T05:13:42;19.13;;;8.82;;
67065;SDS011;53978;43.846;25.952;2023-02-15T05:16:08;16.92;;;8.77;;
67065;SDS011;53978;43.846;25.952;2023-02-15T05:18:33;17.60;;;8.50;;
67065;SDS011;53978;43.846;25.952;2023-02-15T05:20:59;15.43;;;8.80;;
67065;SDS011;53978;43.846;25.952;2023-02-15T05:23:24;19.13;;;9.13;;
67065;SDS011;53978;43.846;25.952;2023-02-15T05:25:50;16.95;;;8.82;;
67065;SDS011;53978;43.846;25.952;2023-02-15T05:28:35;14.90;;;8.48;;
67065;SDS011;53978;43.846;25.952;2023-02-15T05:33:29;15.70;;;8.60;;
67065;SDS011;53978;43.846;25.952;2023-02-15T05:35:55;15.68;;;8.80;;
67065;SDS011;53978;43.846;25.952;2023-02-15T05:38:20;21.90;;;9.60;;
67065;SDS011;53978;43.846;25.952;2023-02-15T05:40:46;16.90;;;9.77;;
67065;SDS011;53978;43.846;25.952;2023-02-15T05:43:11;19.10;;;10.15;;
67065;SDS011;53978;43.846;25.952;2023-02-15T05:45:36;17.73;;;9.05;;
67065;SDS011;53978;43.846;25.952;2023-02-15T05:48:02;19.83;;;9.52;;
67065;SDS011;53978;43.846;25.952;2023-02-15T05:50:27;18.45;;;9.13;;
67065;SDS011;53978;43.846;25.952;2023-02-15T05:52:53;19.38;;;9.93;;
67065;SDS011;53978;43.846;25.952;2023-02-15T05:55:18;21.80;;;9.65;;
67065;SDS011;53978;43.846;25.952;2023-02-15T05:57:44;21.83;;;9.88;;
67065;SDS011;53978;43.846;25.952;2023-02-15T06:00:10;19.38;;;10.25;;
67065;SDS011;53978;43.846;25.952;2023-02-15T06:02:37;23.40;;;13.73;;
67065;SDS011;53978;43.846;25.952;2023-02-15T06:05:03;20.35;;;11.80;;
67065;SDS011;53978;43.846;25.952;2023-02-15T06:07:29;22.25;;;10.32;;
67065;SDS011;53978;43.846;25.952;2023-02-15T06:09:55;19.95;;;10.63;;
67065;SDS011;53978;43.846;25.952;2023-02-15T06:12:20;20.40;;;11.25;;
67065;SDS011;53978;43.846;25.952;2023-02-15T06:14:45;25.13;;;12.73;;
67065;SDS011;53978;43.846;25.952;2023-02-15T06:17:11;29.00;;;13.88;;
67065;SDS011;53978;43.846;25.952;2023-02-15T06:19:36;28.88;;;15.05;;
67065;SDS011;53978;43.846;25.952;2023-02-15T06:22:01;38.38;;;18.63;;
67065;SDS011;53978;43.846;25.952;2023-02-15T06:24:27;28.52;;;15.05;;
67065;SDS011;53978;43.846;25.952;2023-02-15T06:26:52;29.55;;;14.73;;
67065;SDS011;53978;43.846;25.952;2023-02-15T06:29:18;23.45;;;12.15;;
67065;SDS011;53978;43.846;25.952;2023-02-15T06:31:43;23.13;;;12.30;;
67065;SDS011;53978;43.846;25.952;2023-02-15T06:34:08;17.90;;;9.50;;
67065;SDS011;53978;43.846;25.952;2023-02-15T06:36:34;25.77;;;11.50;;
67065;SDS011;53978;43.846;25.952;2023-02-15T06:38:59;25.85;;;11.57;;
67065;SDS011;53978;43.846;25.952;2023-02-15T06:41:25;23.92;;;10.95;;
67065;SDS011;53978;43.846;25.952;2023-02-15T06:43:50;25.38;;;11.25;;
67065;SDS011;53978;43.846;25.952;2023-02-15T06:46:16;25.90;;;13.07;;
67065;SDS011;53978;43.846;25.952;2023-02-15T06:48:41;30.60;;;13.43;;
67065;SDS011;53978;43.846;25.952;2023-02-15T06:51:07;31.63;;;14.85;;
67065;SDS011;53978;43.846;25.952;2023-02-15T06:53:32;25.67;;;14.15;;
67065;SDS011;53978;43.846;25.952;2023-02-15T06:56:04;27.65;;;14.63;;
67065;SDS011;53978;43.846;25.952;2023-02-15T06:58:31;25.40;;;14.48;;
67065;SDS011;53978;43.846;25.952;2023-02-15T07:00:57;31.98;;;15.57;;
67065;SDS011;53978;43.846;25.952;2023-02-15T07:03:23;28.27;;;14.93;;
67065;SDS011;53978;43.846;25.952;2023-02-15T07:05:48;31.60;;;16.02;;
67065;SDS011;53978;43.846;25.952;2023-02-15T07:08:14;29.40;;;15.15;;
67065;SDS011;53978;43.846;25.952;2023-02-15T07:10:42;29.42;;;15.48;;
67065;SDS011;53978;43.846;25.952;2023-02-15T07:13:08;33.00;;;14.55;;
67065;SDS011;53978;43.846;25.952;2023-02-15T07:15:34;27.75;;;14.70;;
67065;SDS011;53978;43.846;25.952;2023-02-15T07:17:59;26.58;;;13.93;;
67065;SDS011;53978;43.846;25.952;2023-02-15T07:20:24;27.67;;;14.23;;
67065;SDS011;53978;43.846;25.952;2023-02-15T07:22:50;26.45;;;11.45;;
67065;SDS011;53978;43.846;25.952;2023-02-15T07:25:16;28.58;;;12.80;;
67065;SDS011;53978;43.846;25.952;2023-02-15T07:27:42;28.15;;;13.95;;
67065;SDS011;53978;43.846;25.952;2023-02-15T07:30:09;26.02;;;12.93;;
67065;SDS011;53978;43.846;25.952;2023-02-15T07:32:36;24.38;;;12.38;;
67065;SDS011;53978;43.846;25.952;2023-02-15T07:35:22;18.48;;;10.35;;
67065;SDS011;53978;43.846;25.952;2023-02-15T07:37:47;21.08;;;11.45;;
67065;SDS011;53978;43.846;25.952;2023-02-15T07:40:13;18.10;;;10.90;;
67065;SDS011;53978;43.846;25.952;2023-02-15T07:42:38;19.63;;;10.73;;
67065;SDS011;53978;43.846;25.952;2023-02-15T07:45:03;19.85;;;11.40;;
67065;SDS011;53978;43.846;25.952;2023-02-15T07:47:29;18.85;;;10.98;;
67065;SDS011;53978;43.846;25.952;2023-02-15T07:49:55;20.75;;;10.68;;
67065;SDS011;53978;43.846;25.952;2023-02-15T07:52:20;20.08;;;10.63;;
67065;SDS011;53978;43.846;25.952;2023-02-15T07:54:45;28.35;;;11.38;;
67065;SDS011;53978;43.846;25.952;2023-02-15T07:57:11;22.25;;;11.02;;
67065;SDS011;53978;43.846;25.952;2023-02-15T07:59:36;21.38;;;11.13;;
67065;SDS011;53978;43.846;25.952;2023-02-15T08:02:01;20.83;;;11.00;;
67065;SDS011;53978;43.846;25.952;2023-02-15T08:04:27;17.25;;;9.65;;
67065;SDS011;53978;43.846;25.952;2023-02-15T08:06:53;15.77;;;8.05;;
67065;SDS011;53978;43.846;25.952;2023-02-15T08:09:19;14.73;;;7.68;;
67065;SDS011;53978;43.846;25.952;2023-02-15T08:11:46;13.38;;;8.05;;
67065;SDS011;53978;43.846;25.952;2023-02-15T08:14:15;14.82;;;8.30;;
67065;SDS011;53978;43.846;25.952;2023-02-15T08:16:52;18.88;;;8.38;;
67065;SDS011;53978;43.846;25.952;2023-02-15T08:19:23;12.68;;;7.68;;
67065;SDS011;53978;43.846;25.952;2023-02-15T08:21:49;20.17;;;8.48;;
67065;SDS011;53978;43.846;25.952;2023-02-15T08:24:20;15.85;;;8.48;;
67065;SDS011;53978;43.846;25.952;2023-02-15T08:26:48;15.27;;;8.65;;
67065;SDS011;53978;43.846;25.952;2023-02-15T08:29:14;12.80;;;7.55;;
67065;SDS011;53978;43.846;25.952;2023-02-15T08:31:40;19.70;;;9.30;;
67065;SDS011;53978;43.846;25.952;2023-02-15T08:34:06;22.90;;;11.00;;
67065;SDS011;53978;43.846;25.952;2023-02-15T08:36:33;21.10;;;11.68;;
67065;SDS011;53978;43.846;25.952;2023-02-15T08:38:58;23.98;;;12.30;;
67065;SDS011;53978;43.846;25.952;2023-02-15T08:41:26;24.33;;;10.68;;
67065;SDS011;53978;43.846;25.952;2023-02-15T08:43:53;21.90;;;11.45;;
67065;SDS011;53978;43.846;25.952;2023-02-15T08:46:20;22.85;;;9.70;;
67065;SDS011;53978;43.846;25.952;2023-02-15T08:48:46;15.93;;;9.18;;
67065;SDS011;53978;43.846;25.952;2023-02-15T08:51:16;14.07;;;8.68;;
67065;SDS011;53978;43.846;25.952;2023-02-15T08:53:44;15.10;;;8.10;;
67065;SDS011;53978;43.846;25.952;2023-02-15T08:56:14;13.98;;;7.93;;
67065;SDS011;53978;43.846;25.952;2023-02-15T08:58:40;18.08;;;8.80;;
67065;SDS011;53978;43.846;25.952;2023-02-15T09:01:12;16.60;;;8.57;;
67065;SDS011;53978;43.846;25.952;2023-02-15T09:03:48;18.30;;;8.13;;
67065;SDS011;53978;43.846;25.952;2023-02-15T09:06:19;20.58;;;9.57;;
67065;SDS011;53978;43.846;25.952;2023-02-15T09:08:48;17.05;;;9.13;;
67065;SDS011;53978;43.846;25.952;2023-02-15T09:11:15;15.95;;;8.55;;
67065;SDS011;53978;43.846;25.952;2023-02-15T09:13:47;15.52;;;8.27;;
67065;SDS011;53978;43.846;25.952;2023-02-15T09:16:24;16.10;;;8.32;;
67065;SDS011;53978;43.846;25.952;2023-02-15T09:18:51;13.93;;;8.15;;
67065;SDS011;53978;43.846;25.952;2023-02-15T09:21:18;18.23;;;8.18;;
67065;SDS011;53978;43.846;25.952;2023-02-15T09:23:46;17.90;;;8.00;;
67065;SDS011;53978;43.846;25.952;2023-02-15T09:26:13;15.85;;;7.50;;
67065;SDS011;53978;43.846;25.952;2023-02-15T09:28:40;16.73;;;8.45;;
67065;SDS011;53978;43.846;25.952;2023-02-15T09:31:07;15.35;;;8.02;;
67065;SDS011;53978;43.846;25.952;2023-02-15T09:33:34;11.10;;;7.40;;
67065;SDS011;53978;43.846;25.952;2023-02-15T09:36:01;14.45;;;7.97;;
67065;SDS011;53978;43.846;25.952;2023-02-15T09:38:27;15.50;;;8.35;;
67065;SDS011;53978;43.846;25.952;2023-02-15T10:05:58;13.30;;;7.55;;
67065;SDS011;53978;43.846;25.952;2023-02-15T10:11:16;15.38;;;8.05;;
67065;SDS011;53978;43.846;25.952;2023-02-15T10:16:53;12.25;;;7.03;;
67065;SDS011;53978;43.846;25.952;2023-02-15T10:22:15;16.25;;;8.63;;
67065;SDS011;53978;43.846;25.952;2023-02-15T10:25:06;17.73;;;8.18;;
67065;SDS011;53978;43.846;25.952;2023-02-15T10:27:41;14.55;;;7.05;;
67065;SDS011;53978;43.846;25.952;2023-02-15T10:30:12;13.70;;;7.07;;
67065;SDS011;53978;43.846;25.952;2023-02-15T10:35:34;12.93;;;7.90;;
67065;SDS011;53978;43.846;25.952;2023-02-15T10:38:04;16.75;;;8.48;;
67065;SDS011;53978;43.846;25.952;2023-02-15T10:46:45;14.43;;;7.88;;
67065;SDS011;53978;43.846;25.952;2023-02-15T10:52:10;13.45;;;7.53;;
67065;SDS011;53978;43.846;25.952;2023-02-15T10:55:26;13.63;;;7.97;;
67065;SDS011;53978;43.846;25.952;2023-02-15T11:08:24;16.33;;;8.00;;
67065;SDS011;53978;43.846;25.952;2023-02-15T11:10:51;13.82;;;7.53;;
67065;SDS011;53978;43.846;25.952;2023-02-15T11:13:20;16.05;;;8.32;;
67065;SDS011;53978;43.846;25.952;2023-02-15T11:15:53;12.23;;;7.57;;
67065;SDS011;53978;43.846;25.952;2023-02-15T11:18:34;13.98;;;8.18;;
67065;SDS011;53978;43.846;25.952;2023-02-15T11:21:03;15.63;;;8.00;;
67065;SDS011;53978;43.846;25.952;2023-02-15T11:23:33;16.35;;;7.95;;
67065;SDS011;53978;43.846;25.952;2023-02-15T11:26:04;13.45;;;7.75;;
67065;SDS011;53978;43.846;25.952;2023-02-15T11:28:39;13.82;;;7.80;;
67065;SDS011;53978;43.846;25.952;2023-02-15T11:31:18;15.40;;;7.90;;
67065;SDS011;53978;43.846;25.952;2023-02-15T11:33:47;14.48;;;7.47;;
67065;SDS011;53978;43.846;25.952;2023-02-15T11:36:24;13.85;;;7.70;;
67065;SDS011;53978;43.846;25.952;2023-02-15T11:38:58;14.98;;;7.95;;
67065;SDS011;53978;43.846;25.952;2023-02-15T11:41:29;13.63;;;7.63;;
67065;SDS011;53978;43.846;25.952;2023-02-15T11:46:32;13.00;;;7.07;;
67065;SDS011;53978;43.846;25.952;2023-02-15T11:48:58;13.25;;;7.57;;
67065;SDS011;53978;43.846;25.952;2023-02-15T11:51:23;12.68;;;7.60;;
67065;SDS011;53978;43.846;25.952;2023-02-15T11:53:49;14.13;;;7.90;;
67065;SDS011;53978;43.846;25.952;2023-02-15T11:56:16;14.35;;;7.95;;
67065;SDS011;53978;43.846;25.952;2023-02-15T11:58:44;14.68;;;7.85;;
67065;SDS011;53978;43.846;25.952;2023-02-15T12:01:17;12.63;;;7.10;;
67065;SDS011;53978;43.846;25.952;2023-02-15T12:03:49;15.30;;;7.43;;
67065;SDS011;53978;43.846;25.952;2023-02-15T12:06:29;14.27;;;8.32;;
67065;SDS011;53978;43.846;25.952;2023-02-15T12:11:35;12.55;;;7.20;;
67065;SDS011;53978;43.846;25.952;2023-02-15T12:14:04;14.48;;;7.15;;
67065;SDS011;53978;43.846;25.952;2023-02-15T12:16:40;13.43;;;7.25;;
67065;SDS011;53978;43.846;25.952;2023-02-15T12:19:18;12.98;;;7.15;;
67065;SDS011;53978;43.846;25.952;2023-02-15T12:21:48;12.45;;;6.97;;
67065;SDS011;53978;43.846;25.952;2023-02-15T12:26:44;12.77;;;7.03;;
67065;SDS011;53978;43.846;25.952;2023-02-15T12:29:21;12.68;;;6.97;;
67065;SDS011;53978;43.846;25.952;2023-02-15T12:31:50;12.48;;;6.30;;
67065;SDS011;53978;43.846;25.952;2023-02-15T12:34:19;11.43;;;6.13;;
67065;SDS011;53978;43.846;25.952;2023-02-15T12:36:56;10.98;;;6.80;;
67065;SDS011;53978;43.846;25.952;2023-02-15T12:39:26;10.60;;;6.25;;
67065;SDS011;53978;43.846;25.952;2023-02-15T12:47:31;9.52;;;5.90;;
67065;SDS011;53978;43.846;25.952;2023-02-15T12:49:44;17.15;;;6.47;;
67065;SDS011;53978;43.846;25.952;2023-02-15T13:02:19;11.00;;;5.90;;
67065;SDS011;53978;43.846;25.952;2023-02-15T13:04:48;8.50;;;5.32;;
67065;SDS011;53978;43.846;25.952;2023-02-15T13:07:14;10.05;;;6.10;;
67065;SDS011;53978;43.846;25.952;2023-02-15T13:09:40;10.40;;;5.90;;
67065;SDS011;53978;43.846;25.952;2023-02-15T13:12:09;10.85;;;6.32;;
67065;SDS011;53978;43.846;25.952;2023-02-15T13:14:42;8.85;;;5.57;;
67065;SDS011;53978;43.846;25.952;2023-02-15T13:17:09;8.70;;;5.07;;
67065;SDS011;53978;43.846;25.952;2023-02-15T13:19:40;8.95;;;5.63;;
67065;SDS011;53978;43.846;25.952;2023-02-15T13:22:13;11.25;;;5.75;;
67065;SDS011;53978;43.846;25.952;2023-02-15T13:24:47;9.63;;;5.53;;
67065;SDS011;53978;43.846;25.952;2023-02-15T13:27:15;10.30;;;5.95;;
67065;SDS011;53978;43.846;25.952;2023-02-15T13:29:46;10.02;;;5.93;;
67065;SDS011;53978;43.846;25.952;2023-02-15T13:35:21;11.25;;;5.90;;
67065;SDS011;53978;43.846;25.952;2023-02-15T13:38:10;12.75;;;6.00;;
67065;SDS011;53978;43.846;25.952;2023-02-15T13:40:45;10.95;;;6.28;;
67065;SDS011;53978;43.846;25.952;2023-02-15T14:15:21;8.98;;;5.20;;
67065;SDS011;53978;43.846;25.952;2023-02-15T14:20:39;13.80;;;5.78;;
67065;SDS011;53978;43.846;25.952;2023-02-15T14:23:17;9.32;;;5.45;;
67065;SDS011;53978;43.846;25.952;2023-02-15T14:25:55;10.55;;;5.97;;
67065;SDS011;53978;43.846;25.952;2023-02-15T14:28:36;10.68;;;6.30;;
67065;SDS011;53978;43.846;25.952;2023-02-15T14:31:06;9.75;;;6.15;;
67065;SDS011;53978;43.846;25.952;2023-02-15T14:33:38;11.48;;;5.78;;
67065;SDS011;53978;43.846;25.952;2023-02-15T14:36:20;8.50;;;5.15;;
67065;SDS011;53978;43.846;25.952;2023-02-15T14:46:50;8.35;;;5.18;;
67065;SDS011;53978;43.846;25.952;2023-02-15T14:49:22;9.25;;;5.30;;
67065;SDS011;53978;43.846;25.952;2023-02-15T14:56:47;10.55;;;6.10;;
67065;SDS011;53978;43.846;25.952;2023-02-15T14:59:38;9.32;;;5.35;;
67065;SDS011;53978;43.846;25.952;2023-02-15T15:04:33;9.35;;;6.00;;
67065;SDS011;53978;43.846;25.952;2023-02-15T15:09:32;9.88;;;6.35;;
67065;SDS011;53978;43.846;25.952;2023-02-15T15:14:46;11.90;;;6.35;;
67065;SDS011;53978;43.846;25.952;2023-02-15T15:17:14;14.27;;;6.85;;
67065;SDS011;53978;43.846;25.952;2023-02-15T15:28:52;12.77;;;7.40;;
67065;SDS011;53978;43.846;25.952;2023-02-15T15:31:00;16.55;;;7.45;;
67065;SDS011;53978;43.846;25.952;2023-02-15T15:47:17;14.55;;;7.40;;
67065;SDS011;53978;43.846;25.952;2023-02-15T15:49:48;17.00;;;8.05;;
67065;SDS011;53978;43.846;25.952;2023-02-15T15:52:15;16.77;;;7.53;;
67065;SDS011;53978;43.846;25.952;2023-02-15T15:54:42;16.33;;;7.55;;
67065;SDS011;53978;43.846;25.952;2023-02-15T15:57:18;17.20;;;7.53;;
67065;SDS011;53978;43.846;25.952;2023-02-15T15:59:48;11.20;;;6.60;;
67065;SDS011;53978;43.846;25.952;2023-02-15T16:02:14;22.35;;;7.95;;
67065;SDS011;53978;43.846;25.952;2023-02-15T16:04:41;17.63;;;8.05;;
67065;SDS011;53978;43.846;25.952;2023-02-15T16:12:27;22.38;;;9.48;;
67065;SDS011;53978;43.846;25.952;2023-02-15T16:14:54;21.30;;;9.90;;
67065;SDS011;53978;43.846;25.952;2023-02-15T16:17:22;22.13;;;10.15;;
67065;SDS011;53978;43.846;25.952;2023-02-15T16:19:50;23.70;;;10.10;;
67065;SDS011;53978;43.846;25.952;2023-02-15T16:22:21;28.38;;;11.32;;
67065;SDS011;53978;43.846;25.952;2023-02-15T16:27:43;28.85;;;11.60;;
67065;SDS011;53978;43.846;25.952;2023-02-15T16:30:54;32.72;;;11.13;;
67065;SDS011;53978;43.846;25.952;2023-02-15T16:33:11;21.52;;;11.02;;
67065;SDS011;53978;43.846;25.952;2023-02-15T16:35:53;24.42;;;11.10;;
67065;SDS011;53978;43.846;25.952;2023-02-15T16:41:06;24.00;;;11.27;;
67065;SDS011;53978;43.846;25.952;2023-02-15T16:43:32;22.30;;;12.07;;
67065;SDS011;53978;43.846;25.952;2023-02-15T16:46:02;27.38;;;11.27;;
67065;SDS011;53978;43.846;25.952;2023-02-15T16:48:30;27.17;;;11.80;;
67065;SDS011;53978;43.846;25.952;2023-02-15T16:50:56;28.92;;;12.55;;
67065;SDS011;53978;43.846;25.952;2023-02-15T16:53:25;27.77;;;11.65;;
67065;SDS011;53978;43.846;25.952;2023-02-15T16:55:56;21.33;;;11.38;;
67065;SDS011;53978;43.846;25.952;2023-02-15T17:01:11;23.27;;;10.85;;
67065;SDS011;53978;43.846;25.952;2023-02-15T17:03:39;22.13;;;11.18;;
67065;SDS011;53978;43.846;25.952;2023-02-15T17:06:05;22.88;;;12.13;;
67065;SDS011;53978;43.846;25.952;2023-02-15T17:08:51;25.33;;;11.93;;
67065;SDS011;53978;43.846;25.952;2023-02-15T17:11:20;34.15;;;11.05;;
67065;SDS011;53978;43.846;25.952;2023-02-15T17:16:31;22.02;;;11.25;;
67065;SDS011;53978;43.846;25.952;2023-02-15T17:18:58;23.85;;;11.05;;
67065;SDS011;53978;43.846;25.952;2023-02-15T17:21:26;19.25;;;10.60;;
67065;SDS011;53978;43.846;25.952;2023-02-15T17:24:00;31.73;;;12.13;;
67065;SDS011;53978;43.846;25.952;2023-02-15T17:26:32;21.08;;;10.65;;
67065;SDS011;53978;43.846;25.952;2023-02-15T17:29:22;20.20;;;10.10;;
67065;SDS011;53978;43.846;25.952;2023-02-15T17:31:48;20.13;;;10.05;;
67065;SDS011;53978;43.846;25.952;2023-02-15T17:37:13;29.77;;;11.65;;
67065;SDS011;53978;43.846;25.952;2023-02-15T17:39:48;23.98;;;10.20;;
67065;SDS011;53978;43.846;25.952;2023-02-15T17:42:14;19.90;;;10.32;;
67065;SDS011;53978;43.846;25.952;2023-02-15T17:44:39;23.05;;;9.95;;
67065;SDS011;53978;43.846;25.952;2023-02-15T17:47:05;21.05;;;10.32;;
67065;SDS011;53978;43.846;25.952;2023-02-15T17:49:30;20.05;;;10.65;;
67065;SDS011;53978;43.846;25.952;2023-02-15T17:51:59;22.52;;;11.43;;
67065;SDS011;53978;43.846;25.952;2023-02-15T17:54:26;30.15;;;12.77;;
67065;SDS011;53978;43.846;25.952;2023-02-15T17:57:11;26.27;;;13.32;;
67065;SDS011;53978;43.846;25.952;2023-02-15T17:59:38;29.70;;;14.00;;
67065;SDS011;53978;43.846;25.952;2023-02-15T18:02:22;26.70;;;14.00;;
67065;SDS011;53978;43.846;25.952;2023-02-15T18:05:11;28.02;;;12.50;;
67065;SDS011;53978;43.846;25.952;2023-02-15T18:07:56;22.73;;;11.65;;
67065;SDS011;53978;43.846;25.952;2023-02-15T18:10:40;25.92;;;13.30;;
67065;SDS011;53978;43.846;25.952;2023-02-15T18:13:24;27.60;;;12.77;;
67065;SDS011;53978;43.846;25.952;2023-02-15T18:15:49;27.23;;;13.52;;
67065;SDS011;53978;43.846;25.952;2023-02-15T18:18:14;29.17;;;13.80;;